AirNav   Free SoundLink Mini II speaker
 
 414 users online  

NH99 New London Hospital Heliport
New London, New Hampshire, USA

GOING TO NEW LONDON?


FAA INFORMATION EFFECTIVE 26 MARCH 2020

Location

FAA Identifier: NH99
Lat/Long: 43-25-12.2900N 071-59-55.8900W
43-25.204833N 071-59.931500W
43.4200806,-71.9988583
(estimated)
Elevation: 1288 ft. / 393 m
From city: 3 miles SW of NEW LONDON, NH
Time zone: UTC -4 (UTC -5 during Standard Time)
Zip code: 03257

Heliport Operations

Heliport use: Private use. Permission required prior to landing
Activation date: 09/2016
Control tower: no
ARTCC: BOSTON CENTER
FSS: BANGOR FLIGHT SERVICE STATION
Attendance: 
Wind indicator: lighted
Segmented circle: no

Heliport Communications

WX ASOS at LEB (18 nm NW): 118.65 (603-298-8780)

Nearby radio navigation aids

VOR radial/distance  VOR name  Freq  Var
LEBr164/18.2LEBANON VOR/DME113.7015W
CONr318/22.0CONCORD VOR/DME112.9015W
EENr033/39.7KEENE VORTAC109.4014W

 
NDB name  Hdg/Dist  Freq  Var  ID
CLAREMONT095/16.523316WCNH -.-. -. ....
HANOVER170/18.627615WLAH .-.. .- ....

Heliport Services

Runway Information

Helipad H1

Dimensions: 40 x 40 ft. / 12 x 12 m
Surface: asphalt
Latitude: 43-25.204833N
Longitude: 071-59.931500W
Elevation: 1288.0 ft.
Traffic pattern: leftleft

Heliport Ownership and Management from official FAA records

Ownership: Privately-owned
Owner: DARTMOUTH ADVANCED RESPONSE TEAM
ONE MEDICAL DRIVE
LEBANON, NH 03756
Phone 603-650-8773
Manager: DARTMOUTH ADVANCED RESPONSE TEAM
ONE MEDICAL DRIVE
LEBANON, NH 03756
Phone 603-650-8773

Additional Remarks

FOR CD CTC BOSTON ARTCC AT 603-879-6859.

Instrument Procedures

There are no published instrument procedures at NH99.

Some nearby airports with instrument procedures:

2B3 - Parlin Field Airport (8 nm W)
KCNH - Claremont Municipal Airport (16 nm W)
KLEB - Lebanon Municipal Airport (18 nm NW)
KVSF - Hartness State Airport (Springfield) (23 nm W)
KCON - Concord Municipal Airport (25 nm SE)
 
Loc | Ops | Rwys | IFR | FBO | Links
Com | Nav | Svcs | Stats | Notes
Aerial photo
No photo
 
Airport distance calculator
Flying to New London Hospital Heliport? Find the distance to fly.

From to NH99

Sunrise and sunset
Times for 03-Apr-2020
 Local
(UTC-4)
 Zulu
(UTC)
Morning civil twilight05:5709:57
Sunrise06:2610:26
Sunset19:1723:17
Evening civil twilight19:4623:46

Current date and time
Zulu (UTC)  03-Apr-2020 11:19:31
Local (UTC-4)  03-Apr-2020 07:19:31
 
METAR
KLEB 
18nm NW 
031053Z 05005KT 5SM -RA BR OVC017 04/03 A2963 RMK AO2 RAE23B40 SLP037 P0001 T00440028
KVSF 
23nm W 
031054Z AUTO VRB04KT 10SM OVC020 06/03 A2963 RMK AO2 RAE40 SLP038 P0004 T00560033
K1P1 
24nm NE 
031055Z AUTO 30009KT 10SM OVC032 05/04 A2961 RMK AO2 T00520036
KCON 
25nm SE 
031051Z AUTO 34007KT 6SM -RA BR OVC021 06/04 A2957 RMK AO2 RAE0957B16 SLP016 P0005 T00560044
KLCI 
27nm E 
031056Z AUTO 04005KT 6SM RA BR OVC019 06/06 A2959 RMK AO2 SLP026 P0006 T00610056
KEEN 
34nm S 
031056Z AUTO 36008KT 8SM -RA BKN015 OVC026 04/04 A2960 RMK AO2 SLP031 P0003 T00440039 $
TAF
KLEB 
18nm NW 
030912Z 0309/0406 35007KT 4SM -SHRA BR SCT006 OVC010 TEMPO 0309/0312 BKN006 FM031300 01008KT P6SM OVC010 FM032000 03007KT P6SM OVC025
NOTAMs
Click for the latest NOTAMs
NOTAMs are issued by the DoD/FAA and will open in a separate window not controlled by AirNav.

 

 
 

Would you like to see your business listed on this page?

 If your business provides an interesting product or service to pilots, flight crews, aircraft, or users of the New London Hospital Heliport, you should consider listing it here.  To start the listing process, click on the button below
 
Add a business
 

Other Pages about New London Hospital Heliport

Update a link
 
Copyright © AirNav, LLC. All rights reserved. Privacy Policy  Contact